sensor_id;sensor_type;location;lat;lon;timestamp;P1;durP1;ratioP1;P2;durP2;ratioP2
27740;SDS011;15134;48.768;9.184;2023-07-24T00:02:16;963.33;;;869.03;;
27740;SDS011;15134;48.768;9.184;2023-07-24T00:04:42;959.08;;;864.95;;
27740;SDS011;15134;48.768;9.184;2023-07-24T00:07:08;955.58;;;861.65;;
27740;SDS011;15134;48.768;9.184;2023-07-24T00:09:34;956.87;;;862.83;;
27740;SDS011;15134;48.768;9.184;2023-07-24T00:11:59;961.40;;;867.17;;
27740;SDS011;15134;48.768;9.184;2023-07-24T00:14:25;955.97;;;861.90;;
27740;SDS011;15134;48.768;9.184;2023-07-24T00:16:51;958.58;;;864.28;;
27740;SDS011;15134;48.768;9.184;2023-07-24T00:19:16;949.22;;;855.42;;
27740;SDS011;15134;48.768;9.184;2023-07-24T00:21:42;953.00;;;858.47;;
27740;SDS011;15134;48.768;9.184;2023-07-24T00:24:08;952.57;;;858.47;;
27740;SDS011;15134;48.768;9.184;2023-07-24T00:26:33;957.03;;;862.83;;
27740;SDS011;15134;48.768;9.184;2023-07-24T00:28:59;954.42;;;860.13;;
27740;SDS011;15134;48.768;9.184;2023-07-24T00:31:26;951.25;;;857.33;;
27740;SDS011;15134;48.768;9.184;2023-07-24T00:33:51;951.37;;;857.37;;
27740;SDS011;15134;48.768;9.184;2023-07-24T00:36:17;954.83;;;860.57;;
27740;SDS011;15134;48.768;9.184;2023-07-24T00:38:43;951.50;;;857.40;;
27740;SDS011;15134;48.768;9.184;2023-07-24T00:41:08;949.45;;;855.20;;
27740;SDS011;15134;48.768;9.184;2023-07-24T00:43:34;945.85;;;851.45;;
27740;SDS011;15134;48.768;9.184;2023-07-24T00:46:00;938.58;;;844.75;;
27740;SDS011;15134;48.768;9.184;2023-07-24T00:48:27;945.55;;;851.45;;
27740;SDS011;15134;48.768;9.184;2023-07-24T00:50:53;947.95;;;853.95;;
27740;SDS011;15134;48.768;9.184;2023-07-24T00:53:19;949.30;;;855.13;;
27740;SDS011;15134;48.768;9.184;2023-07-24T00:55:45;939.92;;;846.22;;
27740;SDS011;15134;48.768;9.184;2023-07-24T00:58:12;947.22;;;853.30;;
27740;SDS011;15134;48.768;9.184;2023-07-24T01:00:38;944.45;;;850.55;;
27740;SDS011;15134;48.768;9.184;2023-07-24T01:03:04;947.58;;;853.40;;
27740;SDS011;15134;48.768;9.184;2023-07-24T01:05:30;938.30;;;844.88;;
27740;SDS011;15134;48.768;9.184;2023-07-24T01:07:56;944.88;;;851.22;;
27740;SDS011;15134;48.768;9.184;2023-07-24T01:10:22;948.75;;;854.58;;
27740;SDS011;15134;48.768;9.184;2023-07-24T01:13:01;942.30;;;848.67;;
27740;SDS011;15134;48.768;9.184;2023-07-24T01:15:33;943.08;;;849.38;;
27740;SDS011;15134;48.768;9.184;2023-07-24T01:18:07;947.95;;;854.08;;
27740;SDS011;15134;48.768;9.184;2023-07-24T01:20:36;941.92;;;848.22;;
27740;SDS011;15134;48.768;9.184;2023-07-24T01:25:54;941.05;;;847.20;;
27740;SDS011;15134;48.768;9.184;2023-07-24T01:28:25;940.00;;;846.22;;
27740;SDS011;15134;48.768;9.184;2023-07-24T01:30:52;945.42;;;851.53;;
27740;SDS011;15134;48.768;9.184;2023-07-24T01:33:19;942.85;;;849.08;;
27740;SDS011;15134;48.768;9.184;2023-07-24T01:35:45;938.13;;;844.28;;
27740;SDS011;15134;48.768;9.184;2023-07-24T01:38:16;938.38;;;844.70;;
27740;SDS011;15134;48.768;9.184;2023-07-24T01:40:43;934.42;;;840.97;;
27740;SDS011;15134;48.768;9.184;2023-07-24T01:43:10;943.30;;;849.45;;
27740;SDS011;15134;48.768;9.184;2023-07-24T01:45:35;941.17;;;847.38;;
27740;SDS011;15134;48.768;9.184;2023-07-24T01:48:04;939.75;;;845.85;;
27740;SDS011;15134;48.768;9.184;2023-07-24T01:50:30;941.40;;;847.42;;
27740;SDS011;15134;48.768;9.184;2023-07-24T01:52:57;942.83;;;848.70;;
27740;SDS011;15134;48.768;9.184;2023-07-24T01:55:22;943.83;;;849.73;;
27740;SDS011;15134;48.768;9.184;2023-07-24T01:57:48;936.67;;;842.93;;
27740;SDS011;15134;48.768;9.184;2023-07-24T02:00:14;935.80;;;842.07;;
27740;SDS011;15134;48.768;9.184;2023-07-24T02:02:40;931.00;;;837.53;;
27740;SDS011;15134;48.768;9.184;2023-07-24T02:05:06;936.37;;;842.87;;
27740;SDS011;15134;48.768;9.184;2023-07-24T02:07:31;937.57;;;843.90;;
27740;SDS011;15134;48.768;9.184;2023-07-24T02:09:57;939.17;;;845.47;;
27740;SDS011;15134;48.768;9.184;2023-07-24T02:12:23;937.67;;;844.00;;
27740;SDS011;15134;48.768;9.184;2023-07-24T02:14:49;935.58;;;841.90;;
27740;SDS011;15134;48.768;9.184;2023-07-24T02:17:17;934.95;;;841.40;;
27740;SDS011;15134;48.768;9.184;2023-07-24T02:19:43;935.17;;;841.50;;
27740;SDS011;15134;48.768;9.184;2023-07-24T02:22:09;941.63;;;847.40;;
27740;SDS011;15134;48.768;9.184;2023-07-24T02:24:35;941.92;;;847.58;;
27740;SDS011;15134;48.768;9.184;2023-07-24T02:27:00;935.97;;;842.47;;
27740;SDS011;15134;48.768;9.184;2023-07-24T02:29:30;936.85;;;843.15;;
27740;SDS011;15134;48.768;9.184;2023-07-24T02:31:56;937.20;;;843.63;;
27740;SDS011;15134;48.768;9.184;2023-07-24T02:34:23;934.10;;;840.70;;
27740;SDS011;15134;48.768;9.184;2023-07-24T02:36:54;931.15;;;837.88;;
27740;SDS011;15134;48.768;9.184;2023-07-24T02:39:20;939.33;;;845.50;;
27740;SDS011;15134;48.768;9.184;2023-07-24T02:41:47;933.50;;;840.08;;
27740;SDS011;15134;48.768;9.184;2023-07-24T02:44:13;930.20;;;836.80;;
27740;SDS011;15134;48.768;9.184;2023-07-24T02:46:39;932.97;;;839.65;;
27740;SDS011;15134;48.768;9.184;2023-07-24T02:49:05;928.47;;;835.47;;
27740;SDS011;15134;48.768;9.184;2023-07-24T02:51:31;927.90;;;834.87;;
27740;SDS011;15134;48.768;9.184;2023-07-24T02:53:57;929.17;;;836.10;;
27740;SDS011;15134;48.768;9.184;2023-07-24T02:56:22;932.33;;;839.03;;
27740;SDS011;15134;48.768;9.184;2023-07-24T02:58:48;931.10;;;837.93;;
27740;SDS011;15134;48.768;9.184;2023-07-24T03:01:14;929.90;;;836.67;;
27740;SDS011;15134;48.768;9.184;2023-07-24T03:03:40;930.55;;;837.28;;
27740;SDS011;15134;48.768;9.184;2023-07-24T03:06:06;931.80;;;838.40;;
27740;SDS011;15134;48.768;9.184;2023-07-24T03:08:32;928.85;;;835.75;;
27740;SDS011;15134;48.768;9.184;2023-07-24T03:10:59;927.25;;;834.20;;
27740;SDS011;15134;48.768;9.184;2023-07-24T03:13:25;932.78;;;839.67;;
27740;SDS011;15134;48.768;9.184;2023-07-24T03:15:52;934.50;;;841.20;;
27740;SDS011;15134;48.768;9.184;2023-07-24T03:18:19;930.65;;;837.42;;
27740;SDS011;15134;48.768;9.184;2023-07-24T03:20:45;934.97;;;841.53;;
27740;SDS011;15134;48.768;9.184;2023-07-24T03:23:10;933.25;;;839.72;;
27740;SDS011;15134;48.768;9.184;2023-07-24T03:25:36;932.13;;;838.72;;
27740;SDS011;15134;48.768;9.184;2023-07-24T03:28:02;927.80;;;834.45;;
27740;SDS011;15134;48.768;9.184;2023-07-24T03:30:29;928.17;;;835.00;;
27740;SDS011;15134;48.768;9.184;2023-07-24T03:32:54;931.03;;;837.80;;
27740;SDS011;15134;48.768;9.184;2023-07-24T03:35:20;935.23;;;841.77;;
27740;SDS011;15134;48.768;9.184;2023-07-24T03:37:46;934.77;;;841.33;;
27740;SDS011;15134;48.768;9.184;2023-07-24T03:40:14;925.15;;;832.08;;
27740;SDS011;15134;48.768;9.184;2023-07-24T03:42:40;936.05;;;842.35;;
27740;SDS011;15134;48.768;9.184;2023-07-24T03:45:07;934.75;;;841.25;;
27740;SDS011;15134;48.768;9.184;2023-07-24T03:47:33;929.80;;;836.47;;
27740;SDS011;15134;48.768;9.184;2023-07-24T03:49:59;931.28;;;837.80;;
27740;SDS011;15134;48.768;9.184;2023-07-24T03:52:25;927.10;;;833.95;;
27740;SDS011;15134;48.768;9.184;2023-07-24T03:54:51;929.35;;;836.22;;
27740;SDS011;15134;48.768;9.184;2023-07-24T03:57:17;926.00;;;832.75;;
27740;SDS011;15134;48.768;9.184;2023-07-24T03:59:43;931.78;;;838.17;;
27740;SDS011;15134;48.768;9.184;2023-07-24T04:02:08;935.97;;;842.27;;
27740;SDS011;15134;48.768;9.184;2023-07-24T04:04:34;934.23;;;840.93;;
27740;SDS011;15134;48.768;9.184;2023-07-24T04:07:00;934.20;;;840.57;;
27740;SDS011;15134;48.768;9.184;2023-07-24T04:09:26;928.87;;;835.63;;
27740;SDS011;15134;48.768;9.184;2023-07-24T04:11:52;933.25;;;839.72;;
27740;SDS011;15134;48.768;9.184;2023-07-24T04:14:18;941.03;;;847.23;;
27740;SDS011;15134;48.768;9.184;2023-07-24T04:16:43;940.93;;;847.20;;
27740;SDS011;15134;48.768;9.184;2023-07-24T04:19:10;939.20;;;845.60;;
27740;SDS011;15134;48.768;9.184;2023-07-24T04:21:35;941.47;;;847.80;;
27740;SDS011;15134;48.768;9.184;2023-07-24T04:24:01;938.17;;;844.70;;
27740;SDS011;15134;48.768;9.184;2023-07-24T04:26:27;948.03;;;854.13;;
27740;SDS011;15134;48.768;9.184;2023-07-24T04:28:53;948.07;;;854.17;;
27740;SDS011;15134;48.768;9.184;2023-07-24T04:31:19;948.60;;;854.53;;
27740;SDS011;15134;48.768;9.184;2023-07-24T04:33:45;955.17;;;859.97;;
27740;SDS011;15134;48.768;9.184;2023-07-24T04:36:11;944.05;;;849.08;;
27740;SDS011;15134;48.768;9.184;2023-07-24T04:38:36;953.20;;;857.27;;
27740;SDS011;15134;48.768;9.184;2023-07-24T04:41:02;952.10;;;857.57;;
27740;SDS011;15134;48.768;9.184;2023-07-24T04:43:28;946.90;;;852.87;;
27740;SDS011;15134;48.768;9.184;2023-07-24T04:45:54;956.60;;;861.88;;
27740;SDS011;15134;48.768;9.184;2023-07-24T04:48:20;957.17;;;862.78;;
27740;SDS011;15134;48.768;9.184;2023-07-24T04:50:46;955.40;;;860.90;;
27740;SDS011;15134;48.768;9.184;2023-07-24T04:53:11;951.23;;;856.97;;
27740;SDS011;15134;48.768;9.184;2023-07-24T04:55:37;951.13;;;857.05;;
27740;SDS011;15134;48.768;9.184;2023-07-24T04:58:03;949.20;;;855.10;;
27740;SDS011;15134;48.768;9.184;2023-07-24T05:00:28;956.47;;;862.13;;
27740;SDS011;15134;48.768;9.184;2023-07-24T05:02:54;961.85;;;867.15;;
27740;SDS011;15134;48.768;9.184;2023-07-24T05:05:20;961.70;;;867.00;;
27740;SDS011;15134;48.768;9.184;2023-07-24T05:07:46;958.80;;;864.27;;
27740;SDS011;15134;48.768;9.184;2023-07-24T05:10:12;956.95;;;862.33;;
27740;SDS011;15134;48.768;9.184;2023-07-24T05:12:40;952.05;;;858.10;;
27740;SDS011;15134;48.768;9.184;2023-07-24T05:15:07;959.65;;;865.15;;
27740;SDS011;15134;48.768;9.184;2023-07-24T05:17:33;957.45;;;863.03;;
27740;SDS011;15134;48.768;9.184;2023-07-24T05:19:59;959.20;;;864.80;;
27740;SDS011;15134;48.768;9.184;2023-07-24T05:22:25;965.13;;;870.42;;
27740;SDS011;15134;48.768;9.184;2023-07-24T05:24:50;961.83;;;867.47;;
27740;SDS011;15134;48.768;9.184;2023-07-24T05:27:16;961.93;;;867.50;;
27740;SDS011;15134;48.768;9.184;2023-07-24T05:29:42;965.55;;;871.05;;
27740;SDS011;15134;48.768;9.184;2023-07-24T05:32:08;965.63;;;871.20;;
27740;SDS011;15134;48.768;9.184;2023-07-24T05:34:34;968.85;;;874.35;;
27740;SDS011;15134;48.768;9.184;2023-07-24T05:37:00;965.20;;;870.77;;
27740;SDS011;15134;48.768;9.184;2023-07-24T05:39:25;967.07;;;872.60;;
27740;SDS011;15134;48.768;9.184;2023-07-24T05:41:51;970.80;;;876.17;;
27740;SDS011;15134;48.768;9.184;2023-07-24T05:44:17;963.47;;;869.15;;
27740;SDS011;15134;48.768;9.184;2023-07-24T05:46:42;963.30;;;868.93;;
27740;SDS011;15134;48.768;9.184;2023-07-24T05:49:08;962.20;;;867.77;;
27740;SDS011;15134;48.768;9.184;2023-07-24T05:51:34;962.70;;;868.40;;
27740;SDS011;15134;48.768;9.184;2023-07-24T05:53:59;957.25;;;863.17;;
27740;SDS011;15134;48.768;9.184;2023-07-24T05:56:25;955.55;;;861.35;;
27740;SDS011;15134;48.768;9.184;2023-07-24T05:58:51;952.85;;;858.88;;
27740;SDS011;15134;48.768;9.184;2023-07-24T06:01:17;947.53;;;853.67;;
27740;SDS011;15134;48.768;9.184;2023-07-24T06:03:42;946.67;;;852.97;;
27740;SDS011;15134;48.768;9.184;2023-07-24T06:06:08;953.38;;;859.30;;
27740;SDS011;15134;48.768;9.184;2023-07-24T06:08:34;947.42;;;853.70;;
27740;SDS011;15134;48.768;9.184;2023-07-24T06:10:59;952.10;;;858.10;;
27740;SDS011;15134;48.768;9.184;2023-07-24T06:13:25;950.53;;;856.63;;
27740;SDS011;15134;48.768;9.184;2023-07-24T06:15:51;952.38;;;858.38;;
27740;SDS011;15134;48.768;9.184;2023-07-24T06:18:18;953.90;;;859.90;;
27740;SDS011;15134;48.768;9.184;2023-07-24T06:20:44;956.05;;;862.05;;
27740;SDS011;15134;48.768;9.184;2023-07-24T06:23:09;947.22;;;853.67;;
27740;SDS011;15134;48.768;9.184;2023-07-24T06:25:35;944.72;;;851.17;;
27740;SDS011;15134;48.768;9.184;2023-07-24T06:28:01;954.95;;;860.90;;
27740;SDS011;15134;48.768;9.184;2023-07-24T06:30:27;959.00;;;864.65;;
27740;SDS011;15134;48.768;9.184;2023-07-24T06:32:52;951.47;;;857.58;;
27740;SDS011;15134;48.768;9.184;2023-07-24T06:35:18;952.97;;;859.07;;
27740;SDS011;15134;48.768;9.184;2023-07-24T06:37:44;942.47;;;849.00;;
27740;SDS011;15134;48.768;9.184;2023-07-24T06:40:10;954.13;;;860.13;;
27740;SDS011;15134;48.768;9.184;2023-07-24T06:42:36;960.08;;;865.63;;
27740;SDS011;15134;48.768;9.184;2023-07-24T06:45:02;958.58;;;864.50;;
27740;SDS011;15134;48.768;9.184;2023-07-24T06:47:28;963.03;;;868.63;;
27740;SDS011;15134;48.768;9.184;2023-07-24T06:49:54;963.33;;;868.95;;
27740;SDS011;15134;48.768;9.184;2023-07-24T06:52:19;958.47;;;864.53;;
27740;SDS011;15134;48.768;9.184;2023-07-24T06:54:45;966.03;;;871.50;;
27740;SDS011;15134;48.768;9.184;2023-07-24T06:57:11;961.90;;;867.75;;
27740;SDS011;15134;48.768;9.184;2023-07-24T06:59:37;958.80;;;864.83;;
27740;SDS011;15134;48.768;9.184;2023-07-24T07:02:02;965.47;;;871.20;;
27740;SDS011;15134;48.768;9.184;2023-07-24T07:04:28;973.33;;;878.83;;
27740;SDS011;15134;48.768;9.184;2023-07-24T07:06:54;968.50;;;874.00;;
27740;SDS011;15134;48.768;9.184;2023-07-24T07:09:20;969.07;;;874.67;;
27740;SDS011;15134;48.768;9.184;2023-07-24T07:11:46;968.07;;;873.67;;
27740;SDS011;15134;48.768;9.184;2023-07-24T07:14:11;971.00;;;876.60;;
27740;SDS011;15134;48.768;9.184;2023-07-24T07:16:37;969.72;;;874.97;;
27740;SDS011;15134;48.768;9.184;2023-07-24T07:19:03;972.88;;;878.38;;
27740;SDS011;15134;48.768;9.184;2023-07-24T07:21:29;967.42;;;873.00;;
27740;SDS011;15134;48.768;9.184;2023-07-24T07:23:55;978.05;;;883.17;;
27740;SDS011;15134;48.768;9.184;2023-07-24T07:26:21;973.97;;;879.37;;
27740;SDS011;15134;48.768;9.184;2023-07-24T07:28:47;976.22;;;881.42;;
27740;SDS011;15134;48.768;9.184;2023-07-24T07:31:13;977.42;;;882.70;;
27740;SDS011;15134;48.768;9.184;2023-07-24T07:33:39;969.20;;;874.58;;
27740;SDS011;15134;48.768;9.184;2023-07-24T07:36:04;976.07;;;881.47;;
27740;SDS011;15134;48.768;9.184;2023-07-24T07:38:31;968.88;;;874.45;;
27740;SDS011;15134;48.768;9.184;2023-07-24T07:40:57;976.00;;;881.35;;
27740;SDS011;15134;48.768;9.184;2023-07-24T07:43:23;972.97;;;878.45;;
27740;SDS011;15134;48.768;9.184;2023-07-24T07:45:49;967.70;;;873.22;;
27740;SDS011;15134;48.768;9.184;2023-07-24T07:48:15;966.70;;;872.28;;
27740;SDS011;15134;48.768;9.184;2023-07-24T07:50:41;970.20;;;875.30;;
27740;SDS011;15134;48.768;9.184;2023-07-24T07:53:06;968.65;;;874.15;;
27740;SDS011;15134;48.768;9.184;2023-07-24T07:55:32;972.80;;;877.97;;
27740;SDS011;15134;48.768;9.184;2023-07-24T07:57:58;972.40;;;877.67;;
27740;SDS011;15134;48.768;9.184;2023-07-24T08:00:23;972.20;;;877.40;;
27740;SDS011;15134;48.768;9.184;2023-07-24T08:02:49;975.47;;;880.70;;
27740;SDS011;15134;48.768;9.184;2023-07-24T08:05:15;968.97;;;874.47;;
27740;SDS011;15134;48.768;9.184;2023-07-24T08:07:41;970.83;;;876.20;;
27740;SDS011;15134;48.768;9.184;2023-07-24T08:10:07;970.80;;;875.97;;
27740;SDS011;15134;48.768;9.184;2023-07-24T08:12:33;972.63;;;878.10;;
27740;SDS011;15134;48.768;9.184;2023-07-24T08:14:59;963.63;;;869.43;;
27740;SDS011;15134;48.768;9.184;2023-07-24T08:17:25;966.05;;;871.47;;
27740;SDS011;15134;48.768;9.184;2023-07-24T08:19:50;966.77;;;872.03;;
27740;SDS011;15134;48.768;9.184;2023-07-24T08:22:16;965.37;;;870.77;;
27740;SDS011;15134;48.768;9.184;2023-07-24T08:24:44;971.92;;;877.20;;
27740;SDS011;15134;48.768;9.184;2023-07-24T08:27:10;968.67;;;873.80;;
27740;SDS011;15134;48.768;9.184;2023-07-24T08:29:36;978.40;;;883.33;;
27740;SDS011;15134;48.768;9.184;2023-07-24T08:32:03;970.53;;;875.60;;
27740;SDS011;15134;48.768;9.184;2023-07-24T08:34:30;967.80;;;873.35;;
27740;SDS011;15134;48.768;9.184;2023-07-24T08:36:55;971.60;;;876.25;;
27740;SDS011;15134;48.768;9.184;2023-07-24T08:39:21;966.37;;;871.80;;
27740;SDS011;15134;48.768;9.184;2023-07-24T08:41:47;968.17;;;873.83;;
27740;SDS011;15134;48.768;9.184;2023-07-24T08:44:12;966.60;;;872.25;;
27740;SDS011;15134;48.768;9.184;2023-07-24T08:46:39;960.67;;;866.70;;
27740;SDS011;15134;48.768;9.184;2023-07-24T08:49:12;962.17;;;867.92;;
27740;SDS011;15134;48.768;9.184;2023-07-24T08:51:39;959.58;;;865.60;;
27740;SDS011;15134;48.768;9.184;2023-07-24T08:54:06;960.58;;;866.38;;
27740;SDS011;15134;48.768;9.184;2023-07-24T08:56:32;962.00;;;867.70;;
27740;SDS011;15134;48.768;9.184;2023-07-24T08:58:58;959.50;;;865.57;;
27740;SDS011;15134;48.768;9.184;2023-07-24T09:01:24;960.80;;;866.40;;
27740;SDS011;15134;48.768;9.184;2023-07-24T09:03:50;957.43;;;863.43;;
27740;SDS011;15134;48.768;9.184;2023-07-24T09:06:16;956.90;;;862.90;;
27740;SDS011;15134;48.768;9.184;2023-07-24T09:08:42;965.97;;;871.47;;
27740;SDS011;15134;48.768;9.184;2023-07-24T09:11:09;957.38;;;863.38;;
27740;SDS011;15134;48.768;9.184;2023-07-24T09:13:36;963.55;;;869.08;;
27740;SDS011;15134;48.768;9.184;2023-07-24T09:16:03;958.80;;;864.67;;
27740;SDS011;15134;48.768;9.184;2023-07-24T09:18:39;950.67;;;857.05;;
27740;SDS011;15134;48.768;9.184;2023-07-24T09:21:06;959.83;;;865.60;;
27740;SDS011;15134;48.768;9.184;2023-07-24T09:23:31;958.10;;;864.17;;
27740;SDS011;15134;48.768;9.184;2023-07-24T09:25:57;961.40;;;867.50;;
27740;SDS011;15134;48.768;9.184;2023-07-24T09:28:23;967.53;;;872.87;;
27740;SDS011;15134;48.768;9.184;2023-07-24T09:30:56;966.00;;;871.70;;
27740;SDS011;15134;48.768;9.184;2023-07-24T09:33:33;965.57;;;871.00;;
27740;SDS011;15134;48.768;9.184;2023-07-24T09:36:04;965.60;;;871.33;;
27740;SDS011;15134;48.768;9.184;2023-07-24T09:38:33;969.42;;;874.58;;
27740;SDS011;15134;48.768;9.184;2023-07-24T09:41:00;969.60;;;875.03;;
27740;SDS011;15134;48.768;9.184;2023-07-24T09:43:28;972.53;;;878.13;;
27740;SDS011;15134;48.768;9.184;2023-07-24T09:45:55;970.83;;;876.47;;
27740;SDS011;15134;48.768;9.184;2023-07-24T09:48:22;971.67;;;877.17;;
27740;SDS011;15134;48.768;9.184;2023-07-24T09:50:55;972.45;;;878.03;;
27740;SDS011;15134;48.768;9.184;2023-07-24T09:53:24;972.60;;;877.92;;
27740;SDS011;15134;48.768;9.184;2023-07-24T09:56:05;972.53;;;878.17;;
27740;SDS011;15134;48.768;9.184;2023-07-24T09:58:35;979.28;;;884.08;;
27740;SDS011;15134;48.768;9.184;2023-07-24T10:01:03;975.20;;;880.60;;
27740;SDS011;15134;48.768;9.184;2023-07-24T10:03:31;970.40;;;876.00;;
27740;SDS011;15134;48.768;9.184;2023-07-24T10:06:03;973.70;;;879.42;;
27740;SDS011;15134;48.768;9.184;2023-07-24T10:08:30;971.55;;;877.33;;
27740;SDS011;15134;48.768;9.184;2023-07-24T10:10:58;974.20;;;880.00;;
27740;SDS011;15134;48.768;9.184;2023-07-24T10:13:25;975.53;;;881.20;;
27740;SDS011;15134;48.768;9.184;2023-07-24T10:15:52;971.40;;;877.10;;
27740;SDS011;15134;48.768;9.184;2023-07-24T10:18:25;969.38;;;875.17;;
27740;SDS011;15134;48.768;9.184;2023-07-24T10:20:59;977.80;;;883.20;;
27740;SDS011;15134;48.768;9.184;2023-07-24T10:23:29;970.88;;;876.83;;
27740;SDS011;15134;48.768;9.184;2023-07-24T10:25:55;972.10;;;877.85;;
27740;SDS011;15134;48.768;9.184;2023-07-24T10:28:33;976.33;;;881.97;;
27740;SDS011;15134;48.768;9.184;2023-07-24T10:31:25;967.22;;;873.15;;
27740;SDS011;15134;48.768;9.184;2023-07-24T10:33:54;970.33;;;876.22;;
27740;SDS011;15134;48.768;9.184;2023-07-24T10:36:22;969.00;;;874.80;;
27740;SDS011;15134;48.768;9.184;2023-07-24T10:38:52;968.38;;;874.33;;
27740;SDS011;15134;48.768;9.184;2023-07-24T10:41:19;971.08;;;876.72;;
27740;SDS011;15134;48.768;9.184;2023-07-24T10:43:50;973.72;;;879.30;;
27740;SDS011;15134;48.768;9.184;2023-07-24T10:46:17;971.13;;;876.63;;
27740;SDS011;15134;48.768;9.184;2023-07-24T10:48:45;967.50;;;873.33;;
27740;SDS011;15134;48.768;9.184;2023-07-24T10:51:12;961.97;;;867.97;;
27740;SDS011;15134;48.768;9.184;2023-07-24T10:53:42;964.00;;;869.60;;
27740;SDS011;15134;48.768;9.184;2023-07-24T10:56:13;960.10;;;866.17;;
27740;SDS011;15134;48.768;9.184;2023-07-24T10:58:39;959.38;;;865.38;;
27740;SDS011;15134;48.768;9.184;2023-07-24T11:01:08;959.57;;;865.63;;
27740;SDS011;15134;48.768;9.184;2023-07-24T11:03:36;952.63;;;858.92;;
27740;SDS011;15134;48.768;9.184;2023-07-24T11:06:03;951.63;;;857.70;;
27740;SDS011;15134;48.768;9.184;2023-07-24T11:08:29;956.25;;;862.17;;
27740;SDS011;15134;48.768;9.184;2023-07-24T11:10:56;944.95;;;851.15;;
27740;SDS011;15134;48.768;9.184;2023-07-24T11:13:23;936.50;;;842.93;;
27740;SDS011;15134;48.768;9.184;2023-07-24T11:15:51;935.90;;;842.30;;
27740;SDS011;15134;48.768;9.184;2023-07-24T11:18:18;933.75;;;840.22;;
27740;SDS011;15134;48.768;9.184;2023-07-24T11:20:51;925.30;;;832.17;;
27740;SDS011;15134;48.768;9.184;2023-07-24T11:23:18;928.38;;;835.08;;
27740;SDS011;15134;48.768;9.184;2023-07-24T11:25:45;928.80;;;835.17;;
27740;SDS011;15134;48.768;9.184;2023-07-24T11:28:12;928.65;;;835.15;;
27740;SDS011;15134;48.768;9.184;2023-07-24T11:30:39;934.05;;;840.45;;
27740;SDS011;15134;48.768;9.184;2023-07-24T11:33:06;934.17;;;840.58;;
27740;SDS011;15134;48.768;9.184;2023-07-24T11:35:34;928.85;;;835.58;;
27740;SDS011;15134;48.768;9.184;2023-07-24T11:38:01;926.53;;;833.10;;
27740;SDS011;15134;48.768;9.184;2023-07-24T11:40:31;930.73;;;837.27;;
27740;SDS011;15134;48.768;9.184;2023-07-24T11:42:57;924.00;;;830.50;;
27740;SDS011;15134;48.768;9.184;2023-07-24T11:45:22;942.63;;;848.77;;
27740;SDS011;15134;48.768;9.184;2023-07-24T11:47:49;943.83;;;850.00;;
27740;SDS011;15134;48.768;9.184;2023-07-24T11:50:15;955.80;;;861.50;;
27740;SDS011;15134;48.768;9.184;2023-07-24T11:52:49;954.92;;;860.70;;
27740;SDS011;15134;48.768;9.184;2023-07-24T11:55:19;960.10;;;865.72;;
27740;SDS011;15134;48.768;9.184;2023-07-24T11:57:56;959.58;;;865.47;;
27740;SDS011;15134;48.768;9.184;2023-07-24T12:00:23;954.20;;;860.30;;
27740;SDS011;15134;48.768;9.184;2023-07-24T12:02:49;955.67;;;861.47;;
27740;SDS011;15134;48.768;9.184;2023-07-24T12:05:15;952.17;;;858.10;;
27740;SDS011;15134;48.768;9.184;2023-07-24T12:07:42;946.65;;;852.83;;
27740;SDS011;15134;48.768;9.184;2023-07-24T12:10:10;954.35;;;860.30;;
27740;SDS011;15134;48.768;9.184;2023-07-24T12:12:43;954.08;;;860.17;;
27740;SDS011;15134;48.768;9.184;2023-07-24T12:15:11;947.88;;;854.00;;
27740;SDS011;15134;48.768;9.184;2023-07-24T12:17:37;942.43;;;848.63;;
27740;SDS011;15134;48.768;9.184;2023-07-24T12:20:04;949.08;;;855.47;;
27740;SDS011;15134;48.768;9.184;2023-07-24T12:22:33;950.90;;;857.15;;
27740;SDS011;15134;48.768;9.184;2023-07-24T12:25:00;950.67;;;856.85;;
27740;SDS011;15134;48.768;9.184;2023-07-24T12:27:26;958.53;;;864.47;;
27740;SDS011;15134;48.768;9.184;2023-07-24T12:29:52;956.80;;;862.97;;
27740;SDS011;15134;48.768;9.184;2023-07-24T12:32:17;960.25;;;866.30;;
27740;SDS011;15134;48.768;9.184;2023-07-24T12:34:45;973.42;;;878.83;;
27740;SDS011;15134;48.768;9.184;2023-07-24T12:37:12;964.53;;;870.40;;
27740;SDS011;15134;48.768;9.184;2023-07-24T12:39:38;964.30;;;869.80;;
27740;SDS011;15134;48.768;9.184;2023-07-24T12:42:04;963.27;;;869.17;;
27740;SDS011;15134;48.768;9.184;2023-07-24T12:44:31;973.10;;;878.70;;
27740;SDS011;15134;48.768;9.184;2023-07-24T12:46:57;969.35;;;875.05;;
27740;SDS011;15134;48.768;9.184;2023-07-24T12:49:23;964.17;;;869.90;;
27740;SDS011;15134;48.768;9.184;2023-07-24T12:51:49;970.40;;;875.97;;
27740;SDS011;15134;48.768;9.184;2023-07-24T12:54:14;964.83;;;870.83;;
27740;SDS011;15134;48.768;9.184;2023-07-24T12:56:40;962.33;;;868.30;;
27740;SDS011;15134;48.768;9.184;2023-07-24T12:59:06;980.13;;;885.33;;
27740;SDS011;15134;48.768;9.184;2023-07-24T13:01:32;973.78;;;879.58;;
27740;SDS011;15134;48.768;9.184;2023-07-24T13:03:57;984.33;;;889.53;;
27740;SDS011;15134;48.768;9.184;2023-07-24T13:06:23;987.72;;;892.92;;
27740;SDS011;15134;48.768;9.184;2023-07-24T13:08:49;981.85;;;887.13;;
27740;SDS011;15134;48.768;9.184;2023-07-24T13:11:15;982.50;;;887.85;;
27740;SDS011;15134;48.768;9.184;2023-07-24T13:13:41;997.83;;;902.43;;
27740;SDS011;15134;48.768;9.184;2023-07-24T13:16:07;993.77;;;898.57;;
27740;SDS011;15134;48.768;9.184;2023-07-24T13:18:32;987.85;;;893.08;;
27740;SDS011;15134;48.768;9.184;2023-07-24T13:20:58;988.88;;;894.00;;
27740;SDS011;15134;48.768;9.184;2023-07-24T13:23:24;994.60;;;899.63;;
27740;SDS011;15134;48.768;9.184;2023-07-24T13:25:51;995.65;;;900.63;;
27740;SDS011;15134;48.768;9.184;2023-07-24T13:28:18;993.50;;;898.60;;
27740;SDS011;15134;48.768;9.184;2023-07-24T13:30:43;997.00;;;901.90;;
27740;SDS011;15134;48.768;9.184;2023-07-24T13:33:09;996.88;;;901.65;;
27740;SDS011;15134;48.768;9.184;2023-07-24T13:35:35;1007.00;;;911.33;;
27740;SDS011;15134;48.768;9.184;2023-07-24T13:38:01;1005.97;;;910.43;;
27740;SDS011;15134;48.768;9.184;2023-07-24T13:40:26;1015.07;;;919.07;;
27740;SDS011;15134;48.768;9.184;2023-07-24T13:42:52;1009.42;;;913.72;;
27740;SDS011;15134;48.768;9.184;2023-07-24T13:45:18;1018.30;;;921.67;;
27740;SDS011;15134;48.768;9.184;2023-07-24T13:47:43;1017.67;;;921.07;;
27740;SDS011;15134;48.768;9.184;2023-07-24T13:50:09;1021.75;;;925.28;;
27740;SDS011;15134;48.768;9.184;2023-07-24T13:52:35;1022.40;;;925.90;;
27740;SDS011;15134;48.768;9.184;2023-07-24T13:55:02;1025.95;;;928.88;;
27740;SDS011;15134;48.768;9.184;2023-07-24T13:57:28;1023.58;;;926.92;;